Crauthem, Luxembourg
Current Conditions -  °F | °C
As of 12:50 PM on Friday 28 Nov 2014 (Local Time) from ELLX Reporting Station
Clear Clear  
Wind Chill: 43°   Ceiling: Unl
Heat Index: 46°   Visibility: 5mi
Dew Point: 43°   Wind: 7mph
Humidity: 87%   Direction: 70°ENE
Pressure: 29.74"   Gusts: NA
Location:  49.54°N, 6.15°E
Report Text: ELLX 281150Z 07006KT 030V130 8000 NSC 08/06 Q1007 NOSIG
Loading
Personal Weather Stations






























Interactive Weather Map New forecast layout! Learn more

10-Day Weather Forecast

Advertisements
Track Severe Weather on mobile